Time;durP1;ratioP1;P1;durP2;ratioP2;P2;SDS_P1;SDS_P2;PMS_P1;PMS_P2;Temp;Humidity;BMP_temperature;BMP_pressure;BME280_temperature;BME280_humidity;BME280_pressure;Samples;Min_cycle;Max_cycle;Signal;HPM_P1;HPM_P2
2021/05/02 00:00:10;;;;;;;12.77;6.47;;;7.50;99.90;;;;;;5012668;28;20571;-67
2021/05/02 00:02:36;;;;;;;13.60;5.97;;;7.60;99.90;;;;;;5024736;28;20041;-67
2021/05/02 00:05:04;;;;;;;11.85;5.72;;;7.50;99.90;;;;;;5022268;28;20952;-67
2021/05/02 00:07:30;;;;;;;13.38;5.72;;;7.50;99.90;;;;;;5021731;28;20044;-67
2021/05/02 00:09:56;;;;;;;14.50;5.53;;;7.60;99.90;;;;;;5014337;28;20480;-67
2021/05/02 00:12:23;;;;;;;9.82;5.05;;;7.60;99.90;;;;;;5024685;28;20565;-67
2021/05/02 00:14:49;;;;;;;14.95;5.05;;;7.60;99.90;;;;;;5017537;28;20050;-67
2021/05/02 00:17:15;;;;;;;15.60;5.95;;;7.60;99.90;;;;;;5021664;28;20060;-67
2021/05/02 00:19:42;;;;;;;9.05;4.13;;;7.60;99.90;;;;;;5015622;28;20385;-67
2021/05/02 00:22:08;;;;;;;8.73;4.57;;;7.60;99.90;;;;;;5021096;28;20168;-67
2021/05/02 00:24:34;;;;;;;9.48;3.80;;;7.60;99.90;;;;;;5021230;28;20046;-67
2021/05/02 00:27:02;;;;;;;11.13;4.10;;;7.60;99.90;;;;;;5018355;28;20038;-67
2021/05/02 00:29:29;;;;;;;8.98;3.95;;;7.50;99.90;;;;;;5017655;28;20113;-67
2021/05/02 00:32:00;;;;;;;9.90;3.33;;;7.50;99.90;;;;;;5018764;28;20507;-67
2021/05/02 00:34:27;;;;;;;7.93;3.30;;;7.50;99.90;;;;;;5024321;28;20159;-67
2021/05/02 00:36:54;;;;;;;13.40;3.67;;;7.40;99.90;;;;;;5021693;28;20553;-67
2021/05/02 00:39:21;;;;;;;8.70;3.85;;;7.40;99.90;;;;;;5015623;28;20037;-67
2021/05/02 00:41:48;;;;;;;7.30;3.45;;;7.40;99.90;;;;;;5019306;28;20158;-67
2021/05/02 00:44:24;;;;;;;10.23;3.88;;;7.40;99.90;;;;;;5021699;28;20054;-67
2021/05/02 00:46:57;;;;;;;14.40;3.83;;;7.40;99.90;;;;;;5022208;28;20041;-67
2021/05/02 00:49:38;;;;;;;9.50;3.40;;;7.40;99.90;;;;;;5016619;28;20033;-67
2021/05/02 00:52:10;;;;;;;11.85;3.42;;;7.40;99.90;;;;;;5022063;28;20419;-67
2021/05/02 00:54:39;;;;;;;11.25;3.47;;;7.40;99.90;;;;;;5023495;28;20041;-67
2021/05/02 00:57:26;;;;;;;11.75;4.38;;;7.40;99.90;;;;;;5018288;28;20041;-67
2021/05/02 01:00:06;;;;;;;9.05;3.45;;;7.50;99.90;;;;;;5018496;28;20053;-67
2021/05/02 01:02:34;;;;;;;10.13;3.05;;;7.40;99.90;;;;;;5021206;28;20041;-67
2021/05/02 01:05:04;;;;;;;9.05;3.13;;;7.40;99.90;;;;;;5019666;28;20061;-67
2021/05/02 01:07:35;;;;;;;12.38;3.50;;;7.40;99.90;;;;;;5023720;28;20912;-67
2021/05/02 01:10:17;;;;;;;13.15;3.42;;;7.30;99.90;;;;;;5015295;28;20066;-67
2021/05/02 01:12:47;;;;;;;9.73;3.20;;;7.40;99.90;;;;;;5027808;28;20131;-67
2021/05/02 01:15:24;;;;;;;9.93;2.90;;;7.40;99.90;;;;;;5022941;28;20050;-67
2021/05/02 01:18:02;;;;;;;10.35;3.45;;;7.30;99.90;;;;;;5027003;28;20037;-67
2021/05/02 01:20:29;;;;;;;10.43;3.95;;;7.30;99.90;;;;;;5018973;28;20110;-67
2021/05/02 01:23:09;;;;;;;6.15;3.58;;;7.30;99.90;;;;;;5027304;28;20476;-67
2021/05/02 01:25:35;;;;;;;10.70;4.28;;;7.30;99.90;;;;;;5025485;28;20065;-67
2021/05/02 01:28:03;;;;;;;16.67;3.78;;;7.30;99.90;;;;;;5026665;28;20053;-67
2021/05/02 01:30:29;;;;;;;8.02;3.83;;;7.30;99.90;;;;;;5016506;28;20037;-67
2021/05/02 01:32:55;;;;;;;8.45;3.22;;;7.40;99.90;;;;;;5024574;28;20155;-67
2021/05/02 01:35:21;;;;;;;10.95;3.85;;;7.30;99.90;;;;;;5027532;28;20203;-67
2021/05/02 01:37:48;;;;;;;10.07;3.75;;;7.30;99.90;;;;;;5027747;28;20053;-67
2021/05/02 01:40:15;;;;;;;9.13;3.58;;;7.30;99.90;;;;;;5018407;28;20041;-67
2021/05/02 01:42:41;;;;;;;11.18;3.85;;;7.30;99.90;;;;;;5025809;28;20050;-67
2021/05/02 01:45:08;;;;;;;8.50;3.83;;;7.30;99.90;;;;;;5025497;28;20054;-67
2021/05/02 01:47:38;;;;;;;8.18;3.92;;;7.30;99.90;;;;;;5026027;28;20412;-67
2021/05/02 01:50:07;;;;;;;8.27;5.25;;;7.30;99.90;;;;;;5019840;28;20041;-67
2021/05/02 01:52:37;;;;;;;10.38;4.22;;;7.30;99.90;;;;;;5025460;28;20068;-67
2021/05/02 01:55:04;;;;;;;8.55;4.15;;;7.20;99.90;;;;;;5024705;28;20099;-67
2021/05/02 01:57:32;;;;;;;11.95;4.13;;;7.20;99.90;;;;;;5027416;28;20568;-67
2021/05/02 02:00:00;;;;;;;11.27;4.45;;;7.30;99.90;;;;;;5019389;28;20050;-67
2021/05/02 02:02:26;;;;;;;12.88;4.40;;;7.30;99.90;;;;;;5027774;28;20052;-67
2021/05/02 02:04:55;;;;;;;9.52;3.80;;;7.30;99.90;;;;;;5025221;28;20049;-67
2021/05/02 02:07:21;;;;;;;10.63;3.25;;;7.30;99.90;;;;;;5025904;28;20049;-67
2021/05/02 02:09:47;;;;;;;9.90;4.10;;;7.30;99.90;;;;;;5019910;28;20034;-67
2021/05/02 02:12:13;;;;;;;10.32;3.58;;;7.30;99.90;;;;;;5028342;28;20045;-67
2021/05/02 02:14:39;;;;;;;8.57;3.33;;;7.40;99.90;;;;;;5030463;28;20032;-67
2021/05/02 02:17:07;;;;;;;11.57;4.05;;;7.30;99.90;;;;;;5020247;28;20496;-67
2021/05/02 02:19:33;;;;;;;8.07;4.07;;;7.30;99.90;;;;;;5018639;28;20041;-67
2021/05/02 02:22:00;;;;;;;7.03;3.15;;;7.30;99.90;;;;;;5023526;28;20041;-67
2021/05/02 02:24:41;;;;;;;11.60;4.40;;;7.30;99.90;;;;;;5027033;28;20476;-67
2021/05/02 02:27:08;;;;;;;5.07;2.97;;;7.30;99.90;;;;;;5024799;28;20400;-67
2021/05/02 02:29:41;;;;;;;7.40;2.90;;;7.30;99.90;;;;;;5017166;28;20045;-67
2021/05/02 02:32:10;;;;;;;13.13;3.25;;;7.40;99.90;;;;;;5027541;28;20041;-67
2021/05/02 02:34:49;;;;;;;10.30;2.80;;;7.40;99.90;;;;;;5025443;28;20045;-67
2021/05/02 02:37:16;;;;;;;7.18;2.22;;;7.40;99.90;;;;;;5021870;28;20118;-67
2021/05/02 02:39:48;;;;;;;5.95;2.60;;;7.40;99.90;;;;;;5017161;28;20072;-67
2021/05/02 02:42:15;;;;;;;7.68;2.25;;;7.40;99.90;;;;;;5025875;28;20837;-67
2021/05/02 02:44:48;;;;;;;10.30;1.92;;;7.30;99.90;;;;;;5022128;28;20439;-67
2021/05/02 02:47:18;;;;;;;7.13;1.70;;;7.30;99.90;;;;;;5025134;28;20119;-67
2021/05/02 02:49:56;;;;;;;9.75;2.05;;;7.20;99.90;;;;;;5021910;28;20088;-67
2021/05/02 02:52:27;;;;;;;9.15;1.98;;;7.10;99.90;;;;;;5022958;28;20048;-67
2021/05/02 02:55:05;;;;;;;5.63;1.98;;;7.10;99.90;;;;;;5025797;28;20037;-67
2021/05/02 02:57:40;;;;;;;9.23;1.50;;;7.10;99.90;;;;;;5024312;28;20487;-67
2021/05/02 03:00:07;;;;;;;8.32;1.80;;;7.10;99.90;;;;;;5018015;28;20400;-67
2021/05/02 03:02:36;;;;;;;5.07;1.58;;;7.00;99.90;;;;;;5026729;28;20037;-67
2021/05/02 03:05:03;;;;;;;5.32;1.40;;;7.10;99.90;;;;;;5024923;28;20041;-67
2021/05/02 03:07:32;;;;;;;10.18;1.42;;;7.00;99.90;;;;;;5024043;28;20038;-67
2021/05/02 03:09:58;;;;;;;9.85;1.95;;;7.10;99.90;;;;;;5020177;28;20919;-67
2021/05/02 03:12:25;;;;;;;6.95;1.80;;;7.10;99.90;;;;;;5024765;28;20037;-67
2021/05/02 03:14:53;;;;;;;8.75;1.20;;;7.00;99.90;;;;;;5023515;28;20034;-67
2021/05/02 03:17:28;;;;;;;9.85;1.77;;;7.10;99.80;;;;;;5022352;28;20030;-67
2021/05/02 03:20:10;;;;;;;4.32;1.27;;;7.00;99.90;;;;;;5016735;28;20050;-67
2021/05/02 03:22:49;;;;;;;5.38;1.67;;;7.00;99.70;;;;;;5026880;28;20041;-67
2021/05/02 03:25:21;;;;;;;3.97;1.10;;;7.00;99.60;;;;;;5024285;28;20033;-67
2021/05/02 03:27:53;;;;;;;6.53;1.52;;;6.80;99.70;;;;;;5024547;28;20033;-67
2021/05/02 03:30:21;;;;;;;9.75;2.13;;;6.90;99.50;;;;;;5017196;28;20664;-67
2021/05/02 03:32:49;;;;;;;6.05;1.80;;;7.00;99.80;;;;;;5026497;28;20503;-67
2021/05/02 03:35:17;;;;;;;5.50;1.60;;;6.90;99.60;;;;;;5025753;28;20493;-67
2021/05/02 03:38:01;;;;;;;8.02;1.40;;;6.90;99.50;;;;;;5024123;28;20045;-67
2021/05/02 03:40:26;;;;;;;6.60;1.92;;;6.90;99.60;;;;;;5016669;28;20045;-67
2021/05/02 03:42:53;;;;;;;4.47;1.13;;;6.70;99.50;;;;;;5024777;28;20067;-67
2021/05/02 03:45:18;;;;;;;7.20;1.35;;;6.80;99.60;;;;;;5025702;28;20116;-67
2021/05/02 03:47:44;;;;;;;6.38;1.10;;;6.70;99.30;;;;;;5026021;28;20141;-67
2021/05/02 03:50:11;;;;;;;6.03;1.10;;;6.70;99.30;;;;;;5016756;28;20547;-67
2021/05/02 03:52:37;;;;;;;6.22;1.40;;;6.60;99.30;;;;;;5020970;28;20046;-67
2021/05/02 03:55:05;;;;;;;8.63;1.40;;;6.50;99.20;;;;;;5020054;28;20290;-66
2021/05/02 03:57:30;;;;;;;6.88;1.40;;;6.40;99.40;;;;;;5025416;28;20056;-66
2021/05/02 03:59:56;;;;;;;6.82;1.58;;;6.40;99.30;;;;;;5017694;28;20464;-67
2021/05/02 04:02:22;;;;;;;4.85;1.20;;;6.40;99.10;;;;;;5021696;28;20451;-67
2021/05/02 04:04:48;;;;;;;3.47;1.33;;;6.40;98.90;;;;;;5024857;28;20045;-66
2021/05/02 04:07:14;;;;;;;7.18;1.40;;;6.30;99.00;;;;;;5022171;28;20053;-67
2021/05/02 04:09:42;;;;;;;3.47;1.20;;;6.30;99.10;;;;;;5017177;28;20034;-67
2021/05/02 04:12:09;;;;;;;6.70;1.10;;;6.30;99.30;;;;;;5023729;28;20124;-67
2021/05/02 04:14:35;;;;;;;5.30;1.10;;;6.20;99.20;;;;;;5026164;28;20038;-67
2021/05/02 04:17:12;;;;;;;7.63;1.30;;;6.10;99.30;;;;;;5022835;28;20054;-67
2021/05/02 04:19:40;;;;;;;6.60;1.27;;;6.10;99.30;;;;;;5016577;28;20038;-67
2021/05/02 04:22:06;;;;;;;3.40;0.95;;;6.10;99.50;;;;;;5023643;28;20076;-67
2021/05/02 04:24:32;;;;;;;2.47;1.05;;;6.10;99.50;;;;;;5023973;28;20048;-66
2021/05/02 04:26:59;;;;;;;7.93;1.33;;;6.10;99.40;;;;;;5024911;28;20042;-67
2021/05/02 04:29:27;;;;;;;3.70;1.35;;;6.10;99.60;;;;;;5014838;28;20038;-66
2021/05/02 04:31:53;;;;;;;5.97;1.38;;;6.10;99.60;;;;;;5022293;28;20126;-66
2021/05/02 04:34:19;;;;;;;4.10;1.20;;;6.10;99.60;;;;;;5023529;28;20080;-67
2021/05/02 04:36:46;;;;;;;5.15;1.02;;;6.10;99.60;;;;;;5024101;28;20068;-67
2021/05/02 04:39:12;;;;;;;6.47;1.33;;;6.10;99.60;;;;;;5018792;28;20041;-67
2021/05/02 04:41:38;;;;;;;8.32;1.30;;;6.10;99.50;;;;;;5035458;28;20045;-66
2021/05/02 04:44:04;;;;;;;5.10;2.25;;;6.00;99.60;;;;;;5025923;28;20707;-67
2021/05/02 04:46:29;;;;;;;5.97;1.70;;;6.00;99.70;;;;;;5030377;28;20068;-66
2021/05/02 04:48:55;;;;;;;6.68;1.52;;;6.00;99.90;;;;;;5024528;28;20056;-66
2021/05/02 04:51:21;;;;;;;5.07;1.40;;;6.00;99.90;;;;;;5030347;28;20562;-66
2021/05/02 04:53:48;;;;;;;9.85;3.08;;;6.10;99.90;;;;;;5027739;28;20045;-67
2021/05/02 04:56:15;;;;;;;6.93;1.30;;;6.10;99.90;;;;;;5030477;28;20041;-67
2021/05/02 04:58:44;;;;;;;4.68;1.50;;;6.20;99.90;;;;;;5026879;28;20037;-66
2021/05/02 05:01:13;;;;;;;14.48;2.47;;;6.10;99.90;;;;;;5025513;28;20042;-67
2021/05/02 05:03:39;;;;;;;6.63;1.77;;;6.20;99.90;;;;;;5029105;28;20065;-66
2021/05/02 05:06:05;;;;;;;10.85;1.80;;;6.10;99.90;;;;;;5029388;28;20511;-67
2021/05/02 05:08:31;;;;;;;7.13;1.80;;;6.20;99.90;;;;;;5026872;28;20035;-66
2021/05/02 05:10:57;;;;;;;8.55;1.63;;;6.20;99.90;;;;;;5024550;28;20439;-66
2021/05/02 05:13:23;;;;;;;3.78;1.48;;;6.20;99.90;;;;;;5031740;28;20740;-67
2021/05/02 05:15:49;;;;;;;9.02;1.90;;;6.20;99.90;;;;;;5028528;28;20166;-67
2021/05/02 05:18:14;;;;;;;6.15;1.48;;;6.10;99.90;;;;;;5030124;28;20060;-66
2021/05/02 05:20:40;;;;;;;7.95;1.23;;;6.80;99.90;;;;;;5029705;28;20466;-66
2021/05/02 05:23:06;;;;;;;6.43;1.52;;;8.30;99.90;;;;;;5031928;28;20049;-67
2021/05/02 05:25:31;;;;;;;7.10;0.90;;;10.20;97.60;;;;;;5029681;28;20039;-67
2021/05/02 05:27:57;;;;;;;3.63;1.33;;;11.90;94.90;;;;;;5031001;28;20182;-67
2021/05/02 05:30:23;;;;;;;6.78;1.30;;;13.50;91.70;;;;;;5022753;28;20050;-67
2021/05/02 05:32:48;;;;;;;4.75;1.50;;;14.90;88.20;;;;;;5027242;28;20041;-67
2021/05/02 05:35:14;;;;;;;5.22;1.10;;;16.20;82.70;;;;;;5030456;28;20033;-67
2021/05/02 05:37:40;;;;;;;4.10;0.90;;;17.00;74.70;;;;;;5031132;28;20440;-67
2021/05/02 05:40:06;;;;;;;9.30;1.40;;;17.00;72.70;;;;;;5023202;28;20052;-67
2021/05/02 05:42:33;;;;;;;7.38;1.17;;;16.10;70.70;;;;;;5027403;28;20156;-67
2021/05/02 05:45:00;;;;;;;4.75;1.17;;;15.80;74.60;;;;;;5029021;28;20400;-67
2021/05/02 05:47:26;;;;;;;3.47;0.93;;;15.60;75.30;;;;;;5027574;28;20045;-67
2021/05/02 05:49:53;;;;;;;7.43;1.13;;;16.40;75.10;;;;;;5024999;28;20072;-67
2021/05/02 05:52:19;;;;;;;3.22;0.93;;;17.40;71.30;;;;;;5027610;28;20037;-67
2021/05/02 05:54:45;;;;;;;3.40;1.02;;;18.40;63.90;;;;;;5025492;28;20095;-68
2021/05/02 05:57:11;;;;;;;5.72;1.00;;;19.10;62.30;;;;;;5022224;28;20546;-67
2021/05/02 05:59:37;;;;;;;6.50;1.05;;;19.40;59.20;;;;;;5022351;28;20119;-68
2021/05/02 06:02:02;;;;;;;5.72;1.70;;;18.80;55.60;;;;;;5026834;28;20492;-68
2021/05/02 06:04:28;;;;;;;5.00;1.10;;;17.90;58.30;;;;;;5025702;28;20765;-67
2021/05/02 06:06:54;;;;;;;8.55;1.23;;;17.00;60.70;;;;;;5023459;28;20042;-67
2021/05/02 06:09:20;;;;;;;3.67;1.00;;;16.30;61.60;;;;;;5017234;28;20075;-67
2021/05/02 06:11:47;;;;;;;5.10;1.20;;;15.60;64.40;;;;;;5026788;28;20038;-67
2021/05/02 06:14:13;;;;;;;4.65;0.98;;;15.10;68.30;;;;;;5025659;28;20711;-67
2021/05/02 06:16:39;;;;;;;7.47;1.73;;;14.70;71.60;;;;;;5023072;28;20113;-68
2021/05/02 06:19:05;;;;;;;4.38;0.93;;;14.50;73.70;;;;;;5020452;28;20041;-67
2021/05/02 06:21:30;;;;;;;2.63;0.73;;;13.90;73.50;;;;;;5023505;28;20119;-67
2021/05/02 06:23:56;;;;;;;4.32;0.90;;;13.70;77.30;;;;;;5025597;28;20081;-67
2021/05/02 06:26:22;;;;;;;3.03;1.10;;;13.50;79.10;;;;;;5024991;28;20034;-67
2021/05/02 06:28:49;;;;;;;3.90;1.08;;;13.20;78.50;;;;;;5026050;28;20499;-67
2021/05/02 06:31:16;;;;;;;2.47;0.73;;;12.70;80.30;;;;;;5020207;28;20067;-67
2021/05/02 06:33:42;;;;;;;4.30;1.10;;;12.10;84.20;;;;;;5027327;28;20034;-67
2021/05/02 06:36:08;;;;;;;3.15;0.73;;;11.60;87.50;;;;;;5027599;28;20086;-67
2021/05/02 06:38:34;;;;;;;2.80;1.05;;;11.40;89.40;;;;;;5025729;28;20041;-68
2021/05/02 06:41:01;;;;;;;5.68;1.05;;;11.00;90.20;;;;;;5017101;28;20045;-67
2021/05/02 06:43:26;;;;;;;4.72;1.00;;;10.80;90.90;;;;;;5025615;28;20059;-68
2021/05/02 06:45:52;;;;;;;4.28;1.08;;;10.70;91.50;;;;;;5022880;28;20041;-68
2021/05/02 06:48:18;;;;;;;3.63;1.00;;;10.70;92.10;;;;;;5025312;28;20036;-67
2021/05/02 06:51:10;;;;;;;6.40;1.20;;;10.60;92.70;;;;;;5023942;28;20037;-68
2021/05/02 06:53:45;;;;;;;3.35;0.85;;;10.40;92.70;;;;;;5034178;28;20037;-68
2021/05/02 06:56:11;;;;;;;3.38;1.38;;;10.20;93.00;;;;;;5031208;28;20034;-67
2021/05/02 06:59:10;;;;;;;4.65;1.42;;;10.20;93.40;;;;;;5034815;28;20040;-67
2021/05/02 07:01:39;;;;;;;8.77;1.77;;;10.00;93.70;;;;;;5024651;28;20055;-67
2021/05/02 07:04:05;;;;;;;8.68;1.27;;;9.80;93.80;;;;;;5025804;28;20041;-67
2021/05/02 07:06:32;;;;;;;6.72;1.45;;;9.60;94.40;;;;;;5023602;28;20045;-67
2021/05/02 07:08:58;;;;;;;5.03;1.63;;;9.50;94.50;;;;;;5020602;28;20034;-68
2021/05/02 07:11:24;;;;;;;8.02;1.50;;;9.40;95.10;;;;;;5020959;28;20656;-68
2021/05/02 07:13:50;;;;;;;7.40;1.50;;;9.20;95.20;;;;;;5022761;28;20103;-67
2021/05/02 07:16:17;;;;;;;10.13;1.77;;;9.10;95.70;;;;;;5025163;28;20034;-68
2021/05/02 07:18:43;;;;;;;6.63;1.98;;;9.20;96.00;;;;;;5025502;28;20046;-67
2021/05/02 07:21:09;;;;;;;6.07;1.52;;;9.20;96.50;;;;;;5021133;28;20388;-68
2021/05/02 07:23:45;;;;;;;5.38;1.40;;;9.30;96.40;;;;;;5026515;28;20053;-68
2021/05/02 07:26:11;;;;;;;6.05;2.28;;;9.30;96.60;;;;;;5023629;28;20109;-68
2021/05/02 07:28:37;;;;;;;2.92;1.17;;;9.40;96.50;;;;;;5024198;28;20112;-67
2021/05/02 07:31:02;;;;;;;5.43;1.40;;;9.40;96.10;;;;;;5021106;28;20063;-67
2021/05/02 07:33:28;;;;;;;3.30;1.00;;;9.40;95.20;;;;;;5026504;28;20242;-68
2021/05/02 07:35:55;;;;;;;5.88;1.80;;;9.50;95.10;;;;;;5022454;28;20053;-67
2021/05/02 07:38:21;;;;;;;6.03;1.20;;;9.60;95.00;;;;;;5025547;28;20049;-68
2021/05/02 07:40:47;;;;;;;4.03;1.40;;;10.00;95.20;;;;;;5020044;28;20098;-67
2021/05/02 07:43:13;;;;;;;4.55;1.20;;;10.20;94.30;;;;;;5023812;28;20111;-68
2021/05/02 07:45:39;;;;;;;5.57;1.55;;;10.40;94.10;;;;;;5025939;28;20041;-68
2021/05/02 07:48:05;;;;;;;5.80;1.60;;;10.60;93.80;;;;;;5024796;28;20049;-68
2021/05/02 07:50:32;;;;;;;6.57;0.90;;;10.70;93.10;;;;;;5017573;28;20741;-68
2021/05/02 07:52:57;;;;;;;6.47;1.48;;;10.40;91.70;;;;;;5023662;28;20052;-67
2021/05/02 07:55:23;;;;;;;3.47;1.00;;;10.30;92.70;;;;;;5023543;28;20091;-67
2021/05/02 07:57:49;;;;;;;3.88;0.75;;;10.10;93.60;;;;;;5026944;28;20033;-67
2021/05/02 08:00:19;;;;;;;6.07;1.73;;;10.00;94.00;;;;;;5016996;28;20034;-68
2021/05/02 08:02:46;;;;;;;2.75;0.63;;;9.90;94.50;;;;;;5034718;28;20045;-68
2021/05/02 08:05:12;;;;;;;4.35;0.90;;;9.80;94.60;;;;;;5033893;28;20053;-67
2021/05/02 08:07:39;;;;;;;5.88;1.00;;;9.80;94.90;;;;;;5022717;28;20710;-67
2021/05/02 08:10:05;;;;;;;5.60;0.82;;;10.00;95.00;;;;;;5016788;28;20046;-67
2021/05/02 08:12:33;;;;;;;4.88;1.00;;;10.40;95.40;;;;;;5025067;28;20445;-67
2021/05/02 08:14:59;;;;;;;5.20;1.65;;;10.80;94.90;;;;;;5022051;28;20390;-67
2021/05/02 08:17:25;;;;;;;5.65;1.38;;;10.80;93.40;;;;;;5023781;28;20034;-67
2021/05/02 08:19:52;;;;;;;4.13;1.02;;;10.80;92.90;;;;;;5019877;28;20048;-67
2021/05/02 08:22:19;;;;;;;4.72;1.00;;;10.80;92.70;;;;;;5024281;28;20085;-68
2021/05/02 08:24:44;;;;;;;6.68;1.13;;;10.90;93.30;;;;;;5023621;28;20095;-68
2021/05/02 08:27:11;;;;;;;9.02;1.15;;;11.00;92.00;;;;;;5024020;28;20045;-67
2021/05/02 08:29:36;;;;;;;5.68;1.42;;;11.10;92.40;;;;;;5019806;28;20076;-67
2021/05/02 08:32:02;;;;;;;2.50;0.90;;;11.10;92.20;;;;;;5024433;28;20046;-68
2021/05/02 08:34:28;;;;;;;5.22;1.27;;;10.90;91.10;;;;;;5024438;28;20029;-68
2021/05/02 08:36:54;;;;;;;4.28;1.23;;;10.90;91.60;;;;;;5023381;28;20056;-67
2021/05/02 08:39:20;;;;;;;4.35;0.85;;;11.20;91.60;;;;;;5018153;28;20042;-67
2021/05/02 08:41:45;;;;;;;3.97;0.88;;;11.30;86.40;;;;;;5022899;28;20045;-67
2021/05/02 08:44:11;;;;;;;5.38;0.75;;;11.30;86.20;;;;;;5026059;28;20049;-67
2021/05/02 08:46:38;;;;;;;4.13;0.88;;;11.50;89.20;;;;;;5025363;28;20059;-67
2021/05/02 08:49:06;;;;;;;4.78;1.20;;;11.70;86.80;;;;;;5025664;28;20045;-67
2021/05/02 08:51:33;;;;;;;5.60;1.00;;;12.00;89.10;;;;;;5020061;28;20103;-68
2021/05/02 08:53:59;;;;;;;4.53;0.70;;;12.40;89.00;;;;;;5024696;28;20045;-68
2021/05/02 08:56:25;;;;;;;4.22;0.90;;;12.80;88.20;;;;;;5020120;28;20041;-68
2021/05/02 08:58:51;;;;;;;8.25;1.23;;;13.00;84.20;;;;;;5023487;28;20476;-67
2021/05/02 09:01:26;;;;;;;5.70;0.70;;;13.30;86.70;;;;;;5022282;28;20492;-68
2021/05/02 09:03:52;;;;;;;;;;;13.50;86.60;;;;;;5026347;28;20543;-68
2021/05/02 09:06:27;;;;;;;5.25;1.48;;;13.50;84.70;;;;;;5032365;28;19963;-68
2021/05/02 09:09:00;;;;;;;6.72;1.33;;;13.70;84.70;;;;;;5024246;28;20053;-68
2021/05/02 09:11:52;;;;;;;6.10;1.05;;;13.80;84.70;;;;;;5017348;28;20183;-68
2021/05/02 09:14:31;;;;;;;3.97;0.70;;;13.60;75.00;;;;;;5020572;28;20076;-67
2021/05/02 09:17:01;;;;;;;4.15;0.73;;;13.50;74.80;;;;;;5028119;28;20590;-68
2021/05/02 09:19:35;;;;;;;2.90;0.47;;;13.70;77.80;;;;;;5018395;28;20120;-68
2021/05/02 09:22:12;;;;;;;5.68;1.15;;;13.70;76.90;;;;;;5028505;28;20050;-68
2021/05/02 09:24:38;;;;;;;4.07;1.00;;;13.60;76.80;;;;;;5024004;28;20033;-68
2021/05/02 09:27:11;;;;;;;7.05;1.90;;;13.50;77.90;;;;;;5024050;28;20869;-68
2021/05/02 09:29:38;;;;;;;5.90;0.70;;;13.60;81.20;;;;;;5018959;28;20048;-68
2021/05/02 09:32:06;;;;;;;5.07;1.02;;;13.70;80.20;;;;;;5027857;28;20560;-68
2021/05/02 09:34:33;;;;;;;2.60;0.70;;;13.40;78.80;;;;;;5024141;28;20510;-68
2021/05/02 09:37:03;;;;;;;5.82;0.82;;;13.10;76.50;;;;;;5020643;28;20041;-68
2021/05/02 09:39:50;;;;;;;3.85;1.10;;;12.70;76.50;;;;;;5019136;28;20064;-67
2021/05/02 09:42:22;;;;;;;2.95;0.90;;;12.50;77.90;;;;;;5027398;28;20685;-67
2021/05/02 09:44:49;;;;;;;5.28;1.05;;;12.10;78.40;;;;;;5026496;28;20135;-67
2021/05/02 09:47:22;;;;;;;3.17;0.82;;;11.90;80.30;;;;;;5025597;28;20041;-67
2021/05/02 09:50:09;;;;;;;8.00;1.05;;;11.80;80.30;;;;;;5019548;28;20076;-67
2021/05/02 09:53:03;;;;;;;3.45;1.15;;;11.70;82.10;;;;;;5024839;28;20140;-69
2021/05/02 09:55:42;;;;;;;3.42;0.68;;;11.80;83.20;;;;;;5024538;28;20050;-69
2021/05/02 09:58:18;;;;;;;5.35;1.05;;;11.60;81.50;;;;;;5023868;28;20442;-70
2021/05/02 10:00:45;;;;;;;;;;;11.80;84.50;;;;;;5021079;28;20140;-69
2021/05/02 10:03:16;;;;;;;5.10;0.90;;;12.30;85.30;;;;;;5026130;28;20007;-67
2021/05/02 10:06:04;;;;;;;4.10;0.75;;;12.70;83.90;;;;;;5025852;28;20132;-67
2021/05/02 10:08:43;;;;;;;3.88;0.90;;;12.70;79.60;;;;;;5032055;28;20034;-68
2021/05/02 10:11:11;;;;;;;3.55;1.23;;;12.60;81.80;;;;;;5023641;28;20076;-67
2021/05/02 10:13:41;;;;;;;5.90;0.93;;;12.10;82.80;;;;;;5023838;28;20117;-67
2021/05/02 10:16:09;;;;;;;3.97;1.10;;;11.90;82.40;;;;;;5022164;28;20037;-67
2021/05/02 10:18:36;;;;;;;3.55;0.70;;;11.70;80.20;;;;;;5021550;28;20786;-67
2021/05/02 10:21:03;;;;;;;3.25;0.80;;;11.70;83.70;;;;;;5023630;28;20041;-67
2021/05/02 10:23:30;;;;;;;5.68;0.80;;;11.60;81.00;;;;;;5025692;28;20450;-67
2021/05/02 10:25:57;;;;;;;3.92;0.50;;;11.60;80.30;;;;;;5026295;28;20137;-67
2021/05/02 10:28:30;;;;;;;4.00;0.63;;;11.50;80.50;;;;;;5024645;28;20033;-67
2021/05/02 10:31:05;;;;;;;2.97;0.63;;;11.30;79.50;;;;;;5020576;28;20485;-67
2021/05/02 10:33:30;;;;;;;5.95;0.80;;;11.30;78.00;;;;;;5025204;28;20057;-67
2021/05/02 10:36:00;;;;;;;4.50;0.95;;;11.30;79.60;;;;;;5025622;28;20042;-67
2021/05/02 10:38:47;;;;;;;3.55;0.70;;;11.40;83.40;;;;;;5024813;28;20048;-67
2021/05/02 10:41:35;;;;;;;3.05;0.88;;;11.40;81.80;;;;;;5016572;28;20037;-68
2021/05/02 10:44:03;;;;;;;5.55;0.90;;;11.50;83.50;;;;;;5022196;28;20053;-67
2021/05/02 10:46:44;;;;;;;3.92;0.80;;;11.60;84.00;;;;;;5023974;28;20038;-67
2021/05/02 10:49:19;;;;;;;3.75;0.57;;;11.50;82.50;;;;;;5019903;28;20116;-67
2021/05/02 10:51:52;;;;;;;3.30;0.50;;;11.40;79.20;;;;;;5021892;28;20072;-67
2021/05/02 10:54:23;;;;;;;2.28;0.70;;;11.20;80.90;;;;;;5024893;28;20042;-67
2021/05/02 10:56:57;;;;;;;3.95;0.65;;;11.10;81.40;;;;;;5023760;28;20200;-67
2021/05/02 10:59:47;;;;;;;2.55;0.60;;;10.90;82.30;;;;;;5016992;28;20087;-69
2021/05/02 11:02:39;;;;;;;4.60;0.60;;;11.10;83.10;;;;;;5022764;28;20092;-67
2021/05/02 11:05:07;;;;;;;5.97;0.57;;;11.30;84.10;;;;;;5024977;28;20058;-67
2021/05/02 11:07:35;;;;;;;5.32;0.55;;;11.40;81.30;;;;;;5023432;28;20030;-67
2021/05/02 11:10:02;;;;;;;4.15;0.50;;;11.50;80.60;;;;;;5017212;28;20438;-67
2021/05/02 11:12:30;;;;;;;3.42;0.55;;;11.60;79.30;;;;;;5023546;28;20053;-67
2021/05/02 11:14:56;;;;;;;4.40;0.65;;;11.80;78.30;;;;;;5024286;28;20531;-67
2021/05/02 11:17:23;;;;;;;2.92;1.00;;;12.30;81.10;;;;;;5025734;28;20037;-67
2021/05/02 11:19:50;;;;;;;2.40;0.40;;;12.30;76.50;;;;;;5016396;28;20499;-67
2021/05/02 11:22:17;;;;;;;4.93;0.60;;;12.30;76.40;;;;;;5024880;28;20045;-67
2021/05/02 11:24:43;;;;;;;2.10;0.50;;;12.20;77.60;;;;;;5024348;28;20045;-67
2021/05/02 11:30:00;;;;;;;4.28;0.70;;;11.80;76.40;;;;;;5007187;28;20121;-67
2021/05/02 11:32:26;;;;;;;7.07;1.10;;;11.50;78.30;;;;;;5009982;28;20124;-68
2021/05/02 11:34:54;;;;;;;5.03;0.57;;;11.50;81.10;;;;;;5014394;28;20030;-67
2021/05/02 11:37:44;;;;;;;3.92;0.70;;;11.50;79.80;;;;;;5026305;28;20086;-67
2021/05/02 11:40:25;;;;;;;5.32;0.82;;;11.60;81.60;;;;;;5017646;28;20132;-67
2021/05/02 11:43:17;;;;;;;3.70;0.90;;;11.70;83.10;;;;;;5023926;28;20063;-67
2021/05/02 11:45:45;;;;;;;2.97;0.65;;;11.80;83.80;;;;;;5022866;28;20410;-67
2021/05/02 11:48:28;;;;;;;4.10;0.70;;;11.80;81.50;;;;;;5020861;28;20060;-67
2021/05/02 11:51:00;;;;;;;4.47;0.70;;;11.80;78.40;;;;;;5016447;28;20041;-67
2021/05/02 11:53:49;;;;;;;2.88;0.88;;;11.80;80.30;;;;;;5022396;28;20488;-67
2021/05/02 11:56:19;;;;;;;6.72;0.73;;;11.70;80.40;;;;;;5022095;28;20045;-69
2021/05/02 11:58:46;;;;;;;2.00;0.50;;;11.70;81.50;;;;;;5022670;28;20176;-69
2021/05/02 12:01:19;;;;;;;2.75;0.73;;;11.70;82.10;;;;;;5019365;28;20510;-69
2021/05/02 12:03:45;;;;;;;4.43;0.80;;;11.70;82.40;;;;;;5024628;28;20526;-69
2021/05/02 12:06:24;;;;;;;5.10;0.85;;;11.70;83.10;;;;;;5024060;28;20099;-69
2021/05/02 12:08:49;;;;;;;3.58;0.50;;;11.60;82.40;;;;;;5016327;28;20124;-69
2021/05/02 12:11:15;;;;;;;3.33;0.82;;;11.70;80.90;;;;;;5015744;28;20103;-69
2021/05/02 12:13:51;;;;;;;3.15;0.45;;;11.60;80.30;;;;;;5015601;28;20041;-69
2021/05/02 12:16:18;;;;;;;4.55;0.90;;;11.60;81.50;;;;;;5018597;28;20037;-69
2021/05/02 12:18:48;;;;;;;1.92;0.43;;;11.50;79.00;;;;;;5017977;28;20048;-69
2021/05/02 12:21:22;;;;;;;3.53;0.63;;;11.40;78.40;;;;;;5017781;28;20049;-69
2021/05/02 12:23:48;;;;;;;4.57;1.15;;;11.30;79.20;;;;;;5014817;28;20045;-69
2021/05/02 12:26:15;;;;;;;2.92;0.60;;;11.20;81.40;;;;;;5016165;28;20046;-69
2021/05/02 12:28:41;;;;;;;2.53;0.52;;;11.00;81.90;;;;;;5013404;28;20088;-69
2021/05/02 12:31:11;;;;;;;3.17;0.68;;;11.00;83.10;;;;;;5013969;28;20510;-69
2021/05/02 12:33:38;;;;;;;1.67;0.40;;;11.00;82.80;;;;;;5016056;28;20407;-69
2021/05/02 12:36:06;;;;;;;2.67;0.80;;;10.90;83.30;;;;;;5014174;28;20048;-69
2021/05/02 12:38:32;;;;;;;3.88;0.65;;;10.90;83.60;;;;;;5012309;28;20884;-71
2021/05/02 12:40:58;;;;;;;5.25;0.77;;;10.80;84.80;;;;;;5012933;28;20165;-68
2021/05/02 12:43:29;;;;;;;7.00;0.90;;;10.90;86.10;;;;;;5018963;28;20467;-68
2021/05/02 12:45:55;;;;;;;4.03;0.60;;;10.90;86.80;;;;;;5014146;28;20045;-68
2021/05/02 12:48:31;;;;;;;4.22;0.70;;;11.10;87.20;;;;;;5017349;28;20108;-68
2021/05/02 12:50:58;;;;;;;;;;;11.30;86.50;;;;;;5016075;28;20038;-68
2021/05/02 12:53:42;;;;;;;2.83;0.68;;;11.60;86.00;;;;;;5017811;28;19967;-70
2021/05/02 12:56:09;;;;;;;1.92;0.57;;;12.10;84.30;;;;;;5014598;28;20099;-72
2021/05/02 12:58:38;;;;;;;2.20;0.43;;;12.30;81.50;;;;;;5015739;28;20108;-70
2021/05/02 13:01:12;;;;;;;2.22;0.50;;;12.30;79.20;;;;;;5014959;28;20049;-70
2021/05/02 13:03:43;;;;;;;6.45;1.05;;;12.40;80.70;;;;;;5021363;28;20046;-70